Time;durP1;ratioP1;P1;durP2;ratioP2;P2;SDS_P1;SDS_P2;PMS_P1;PMS_P2;Temp;Humidity;BMP_temperature;BMP_pressure;BME280_temperature;BME280_humidity;BME280_pressure;Samples;Min_cycle;Max_cycle;Signal;HPM_P1;HPM_P2
2021/10/21 00:01:43;;;;;;;;;0.00;0.00;;;;;15.60;54.35;98913.97;5056202;28;45444;-61
2021/10/21 00:04:09;;;;;;;;;1.75;0.75;;;;;15.58;54.13;98907.06;5057345;28;45398;-60
2021/10/21 00:06:34;;;;;;;;;0.50;0.50;;;;;15.58;54.47;98944.13;5056886;28;46216;-60
2021/10/21 00:08:59;;;;;;;;;2.50;0.50;;;;;15.57;54.24;98923.97;5055049;28;68456;-60
2021/10/21 00:11:25;;;;;;;;;2.75;0.50;;;;;15.56;54.44;98930.28;5056242;28;60971;-60
2021/10/21 00:13:50;;;;;;;;;1.75;0.00;;;;;15.53;53.96;98921.94;5055860;28;45244;-60
2021/10/21 00:16:16;;;;;;;;;2.50;0.25;;;;;15.52;54.20;98915.03;5056115;28;67374;-60
2021/10/21 00:18:41;;;;;;;;;0.50;0.00;;;;;15.51;54.04;98924.78;5056194;28;64151;-61
2021/10/21 00:21:07;;;;;;;;;0.25;0.00;;;;;15.52;53.85;98917.69;5056449;28;51964;-60
2021/10/21 00:23:32;;;;;;;;;0.25;0.00;;;;;15.52;53.92;98912.38;5056738;28;45296;-60
2021/10/21 00:25:59;;;;;;;;;1.00;0.00;;;;;15.51;53.76;98927.44;5055977;28;63912;-60
2021/10/21 00:28:25;;;;;;;;;0.25;0.00;;;;;15.52;53.97;98901.81;5056694;28;45757;-60
2021/10/21 00:30:50;;;;;;;;;0.00;0.00;;;;;15.50;53.79;98925.81;5056253;28;58438;-60
2021/10/21 00:33:16;;;;;;;;;0.00;0.00;;;;;15.51;53.99;98939.88;5055693;28;64733;-61
2021/10/21 00:35:41;;;;;;;;;0.75;0.00;;;;;15.52;53.74;98929.06;5055687;28;69195;-61
2021/10/21 00:38:06;;;;;;;;;0.00;0.00;;;;;15.51;53.69;98940.69;5055612;28;69516;-61
2021/10/21 00:40:32;;;;;;;;;1.00;0.00;;;;;15.52;53.68;98939.66;5056153;28;53008;-61
2021/10/21 00:42:57;;;;;;;;;2.00;0.25;;;;;15.52;53.46;98936.22;5055674;28;63383;-61
2021/10/21 00:45:22;;;;;;;;;1.25;1.00;;;;;15.53;54.15;98928.03;5055832;28;63741;-60
2021/10/21 00:47:48;;;;;;;;;1.75;1.00;;;;;15.54;53.58;98948.19;5056158;28;55476;-61
2021/10/21 00:50:13;;;;;;;;;1.75;0.75;;;;;15.54;53.58;98928.88;5055717;28;61551;-60
2021/10/21 00:52:38;;;;;;;;;1.50;0.75;;;;;15.54;53.92;98902.41;5056512;28;45398;-61
2021/10/21 00:55:04;;;;;;;;;1.75;0.75;;;;;15.53;53.49;98964.31;5055376;28;72263;-60
2021/10/21 00:57:30;;;;;;;;;0.00;0.00;;;;;15.52;53.50;98941.50;5054169;28;45499;-61
2021/10/21 00:59:55;;;;;;;;;1.75;0.00;;;;;15.49;53.53;98953.31;5056550;28;45503;-60
2021/10/21 01:02:20;;;;;;;;;2.00;0.75;;;;;15.47;53.66;98939.47;5056301;28;45535;-60
2021/10/21 01:04:46;;;;;;;;;1.50;0.00;;;;;15.48;53.19;98914.63;5056219;28;46427;-60
2021/10/21 01:07:12;;;;;;;;;1.25;0.00;;;;;15.47;53.37;98944.75;5056287;28;45223;-61
2021/10/21 01:09:37;;;;;;;;;2.25;0.00;;;;;15.45;53.28;98928.25;5038496;28;45369;-60
2021/10/21 01:12:04;;;;;;;;;3.75;0.00;;;;;15.43;52.67;98925.84;5055923;28;56195;-61
2021/10/21 01:14:29;;;;;;;;;0.25;0.00;;;;;15.45;53.33;98935.41;5054497;28;45405;-60
2021/10/21 01:16:54;;;;;;;;;2.25;0.00;;;;;15.45;52.86;98940.69;5056038;28;51989;-60
2021/10/21 01:19:21;;;;;;;;;0.00;0.00;;;;;15.46;52.94;98958.22;5055221;28;65399;-60
2021/10/21 01:21:49;;;;;;;;;1.50;0.00;;;;;15.47;52.97;98973.88;5056109;28;45326;-60
2021/10/21 01:24:14;;;;;;;;;0.00;0.00;;;;;15.46;52.82;98969.59;5054642;28;45231;-61
2021/10/21 01:26:44;;;;;;;;;1.50;0.00;;;;;15.46;52.52;98988.13;5056012;28;45284;-61
2021/10/21 01:29:09;;;;;;;;;1.75;0.00;;;;;15.45;52.35;98967.16;5056070;28;45364;-61
2021/10/21 01:31:37;;;;;;;;;0.00;0.00;;;;;15.43;52.23;98980.59;5056165;28;45594;-61
2021/10/21 01:34:08;;;;;;;;;0.00;0.00;;;;;15.43;52.37;98970.84;5054707;28;46342;-60
2021/10/21 01:36:33;;;;;;;;;0.00;0.00;;;;;15.41;52.37;99003.81;5056002;28;45347;-60
2021/10/21 01:38:59;;;;;;;;;0.00;0.00;;;;;15.39;52.28;99005.84;5055988;28;45272;-60
2021/10/21 01:41:24;;;;;;;;;0.00;0.00;;;;;15.39;52.05;99030.50;5055037;28;65666;-60
2021/10/21 01:43:49;;;;;;;;;0.00;0.00;;;;;15.39;52.40;99032.31;5055074;28;64597;-60
2021/10/21 01:46:15;;;;;;;;;0.00;0.00;;;;;15.36;51.84;99064.50;5054961;28;68351;-60
2021/10/21 01:48:40;;;;;;;;;0.00;0.00;;;;;15.33;52.12;99038.44;5055845;28;45292;-61
2021/10/21 01:51:06;;;;;;;;;0.00;0.00;;;;;15.29;52.26;99038.03;5054730;28;45324;-61
2021/10/21 01:53:31;;;;;;;;;0.00;0.00;;;;;15.27;52.42;99051.47;5037766;28;46185;-61
2021/10/21 01:55:57;;;;;;;;;0.00;0.00;;;;;15.26;52.44;99054.31;5054300;28;45356;-60
2021/10/21 01:58:22;;;;;;;;;0.00;0.00;;;;;15.23;52.61;99082.00;5054878;28;65970;-60
2021/10/21 02:00:47;;;;;;;;;1.25;0.00;;;;;15.23;52.92;99060.81;5055586;28;45319;-61
2021/10/21 02:03:13;;;;;;;;;0.00;0.00;;;;;15.20;53.04;99082.41;5054629;28;72723;-60
2021/10/21 02:05:38;;;;;;;;;0.00;0.00;;;;;15.18;52.67;99084.44;5054835;28;66497;-61
2021/10/21 02:08:04;;;;;;;;;0.00;0.00;;;;;15.13;52.41;99110.66;5056414;28;45382;-60
2021/10/21 02:10:29;;;;;;;;;0.00;0.00;;;;;15.09;52.37;99122.66;5058127;28;65062;-60
2021/10/21 02:12:54;;;;;;;;;0.00;0.00;;;;;15.06;52.41;99126.53;5058838;28;46223;-61
2021/10/21 02:15:20;;;;;;;;;0.75;0.00;;;;;15.05;52.43;99140.78;5058778;28;45387;-61
2021/10/21 02:17:46;;;;;;;;;0.75;0.00;;;;;15.04;52.27;99135.69;5058869;28;45518;-60
2021/10/21 02:20:11;;;;;;;;;0.00;0.00;;;;;15.02;51.56;99130.59;5058761;28;45558;-60
2021/10/21 02:22:37;;;;;;;;;0.00;0.00;;;;;14.99;51.91;99145.03;5058318;28;45333;-60
2021/10/21 02:25:04;;;;;;;;;0.25;0.00;;;;;14.96;51.25;99144.63;5058647;28;45794;-59
2021/10/21 02:27:29;;;;;;;;;0.25;0.00;;;;;14.94;51.01;99171.25;5058846;28;45335;-60
2021/10/21 02:29:55;;;;;;;;;0.50;0.00;;;;;14.93;50.86;99201.34;5058726;28;45590;-60
2021/10/21 02:32:20;;;;;;;;;0.00;0.00;;;;;14.90;51.22;99188.53;5057320;28;70599;-59
2021/10/21 02:34:45;;;;;;;;;0.00;0.00;;;;;14.88;51.26;99218.84;5056729;28;64649;-60
2021/10/21 02:37:11;;;;;;;;;0.00;0.00;;;;;14.85;50.91;99198.88;5058650;28;45621;-60
2021/10/21 02:39:36;;;;;;;;;0.00;0.00;;;;;14.83;51.29;99209.66;5058676;28;45582;-60
2021/10/21 02:42:02;;;;;;;;;0.25;0.00;;;;;14.80;51.13;99219.84;5057627;28;63615;-60
2021/10/21 02:44:27;;;;;;;;;0.75;0.00;;;;;14.77;50.90;99234.25;5057022;28;45339;-60
2021/10/21 02:46:53;;;;;;;;;0.00;0.00;;;;;14.76;51.25;99240.53;5057820;28;60534;-60
2021/10/21 02:49:18;;;;;;;;;0.00;0.00;;;;;14.73;51.61;99262.09;5058554;28;45526;-60
2021/10/21 02:51:44;;;;;;;;;0.00;0.00;;;;;14.73;51.43;99261.28;5058175;28;45339;-60
2021/10/21 02:54:09;;;;;;;;;0.00;0.00;;;;;14.71;51.59;99247.44;5056020;28;70369;-59
2021/10/21 02:56:34;;;;;;;;;0.00;0.00;;;;;14.69;51.74;99298.69;5056347;28;65867;-60
2021/10/21 02:59:00;;;;;;;;;0.50;0.00;;;;;14.67;51.68;99237.22;5058303;28;45286;-60
2021/10/21 03:01:25;;;;;;;;;0.00;0.00;;;;;14.65;52.01;99292.13;5057223;28;66614;-62
2021/10/21 03:03:50;;;;;;;;;0.00;0.00;;;;;14.62;51.85;99304.88;5057495;28;62996;-60
2021/10/21 03:06:16;;;;;;;;;1.25;0.00;;;;;14.61;52.03;99329.69;5057388;28;63838;-59
2021/10/21 03:08:41;;;;;;;;;0.75;0.00;;;;;14.61;52.51;99312.00;5057112;28;68539;-62
2021/10/21 03:11:06;;;;;;;;;0.00;0.00;;;;;14.59;52.45;99335.19;5057160;28;71587;-63
2021/10/21 03:13:32;;;;;;;;;0.00;0.00;;;;;14.55;52.11;99363.00;5058069;28;45490;-63
2021/10/21 03:15:57;;;;;;;;;1.25;0.00;;;;;14.52;52.94;99384.53;5057222;28;64818;-60
2021/10/21 03:18:23;;;;;;;;;0.00;0.00;;;;;14.52;52.79;99408.31;5056792;28;45411;-60
2021/10/21 03:20:48;;;;;;;;;0.00;0.00;;;;;14.50;52.55;99427.03;5056523;28;46003;-62
2021/10/21 03:23:14;;;;;;;;;0.00;0.00;;;;;14.46;52.90;99448.72;5057765;28;45244;-62
2021/10/21 03:25:39;;;;;;;;;1.00;0.00;;;;;14.42;53.06;99439.50;5058113;28;45429;-62
2021/10/21 03:28:04;;;;;;;;;0.00;0.00;;;;;14.39;53.40;99489.09;5057903;28;45372;-63
2021/10/21 03:30:30;;;;;;;;;0.00;0.00;;;;;14.37;53.52;99491.09;5055900;28;61999;-62
2021/10/21 03:32:55;;;;;;;;;0.00;0.00;;;;;14.35;53.33;99524.03;5056839;28;66451;-63
2021/10/21 03:35:21;;;;;;;;;1.00;0.00;;;;;14.30;53.41;99505.25;5056950;28;60653;-63
2021/10/21 03:37:47;;;;;;;;;0.00;0.00;;;;;14.25;53.85;99571.88;5056544;28;45485;-60
2021/10/21 03:40:12;;;;;;;;;2.00;0.00;;;;;14.20;54.62;99606.75;5056521;28;69235;-60
2021/10/21 03:42:37;;;;;;;;;0.00;0.00;;;;;14.15;55.35;99609.13;5057518;28;45453;-60
2021/10/21 03:45:04;;;;;;;;;0.00;0.00;;;;;14.08;55.98;99638.09;5057059;28;55941;-60
2021/10/21 03:47:29;;;;;;;;;0.75;0.00;;;;;14.03;56.41;99643.09;5056107;28;45330;-59
2021/10/21 03:49:54;;;;;;;;;0.00;0.00;;;;;13.95;56.51;99681.00;5038589;28;68328;-60
2021/10/21 03:52:20;;;;;;;;;1.00;0.00;;;;;13.86;56.53;99682.06;5055082;28;72012;-60
2021/10/21 03:54:46;;;;;;;;;1.00;0.00;;;;;13.75;57.66;99704.44;5057170;28;48206;-60
2021/10/21 03:57:11;;;;;;;;;1.00;0.00;;;;;13.68;57.71;99708.78;5056176;28;45262;-60
2021/10/21 03:59:37;;;;;;;;;3.75;1.00;;;;;13.60;57.96;99727.31;5055231;28;63982;-60
2021/10/21 04:02:03;;;;;;;;;0.00;0.00;;;;;13.54;58.06;99746.47;5056932;28;45301;-60
2021/10/21 04:04:28;;;;;;;;;3.00;0.00;;;;;13.45;58.22;99759.72;5057264;28;45202;-60
2021/10/21 04:06:53;;;;;;;;;0.00;0.00;;;;;13.38;58.08;99782.50;5056517;28;60980;-60
2021/10/21 04:09:19;;;;;;;;;0.75;0.00;;;;;13.31;58.51;99807.91;5055996;28;67505;-60
2021/10/21 04:11:44;;;;;;;;;1.00;0.00;;;;;13.20;57.98;99807.31;5054883;28;69060;-59
2021/10/21 04:14:09;;;;;;;;;2.50;0.00;;;;;13.13;58.81;99816.91;5056136;28;66664;-59
2021/10/21 04:16:35;;;;;;;;;2.25;0.50;;;;;13.07;58.50;99833.41;5056882;28;45370;-60
2021/10/21 04:19:00;;;;;;;;;0.00;0.00;;;;;13.01;58.20;99844.63;5054899;28;65519;-59
2021/10/21 04:21:25;;;;;;;;;2.00;1.00;;;;;12.96;57.66;99849.59;5056588;28;46645;-60
2021/10/21 04:23:51;;;;;;;;;2.00;2.00;;;;;12.92;58.16;99870.22;5055900;28;59785;-60
2021/10/21 04:26:16;;;;;;;;;0.00;0.00;;;;;12.90;58.40;99873.00;5056254;28;61134;-59
2021/10/21 04:28:42;;;;;;;;;0.00;0.00;;;;;12.90;58.23;99877.47;5056537;28;45588;-60
2021/10/21 04:31:08;;;;;;;;;1.00;0.00;;;;;12.89;57.80;99876.63;5038578;28;45328;-59
2021/10/21 04:33:33;;;;;;;;;2.00;0.00;;;;;12.93;58.01;99887.69;5038087;28;58657;-60
2021/10/21 04:35:59;;;;;;;;;4.25;1.00;;;;;12.92;57.39;99899.22;5055926;28;58811;-60
2021/10/21 04:38:24;;;;;;;;;1.00;0.00;;;;;12.93;57.50;99902.66;5054241;28;74627;-60
2021/10/21 04:40:49;;;;;;;;;0.25;0.00;;;;;12.93;57.20;99915.84;5056470;28;45355;-60
2021/10/21 04:43:15;;;;;;;;;1.00;0.00;;;;;12.93;56.83;99926.38;5055917;28;58070;-59
2021/10/21 04:45:40;;;;;;;;;0.75;0.25;;;;;12.93;57.01;99935.13;5056364;28;45298;-59
2021/10/21 04:48:06;;;;;;;;;1.75;0.25;;;;;12.94;57.12;99947.34;5056198;28;46057;-59
2021/10/21 04:50:31;;;;;;;;;2.00;0.00;;;;;12.96;57.33;99957.69;5056356;28;45259;-60
2021/10/21 04:52:56;;;;;;;;;2.00;2.00;;;;;12.97;57.23;99970.72;5056095;28;46215;-62
2021/10/21 04:55:22;;;;;;;;;1.50;0.00;;;;;12.98;56.68;99967.06;5055718;28;59119;-62
2021/10/21 04:57:48;;;;;;;;;1.00;1.00;;;;;12.99;56.58;99978.47;5054872;28;45326;-63
2021/10/21 05:00:14;;;;;;;;;1.00;1.00;;;;;13.00;56.90;99986.19;5056024;28;45258;-63
2021/10/21 05:02:39;;;;;;;;;1.25;0.75;;;;;13.03;57.00;100003.53;5054881;28;45304;-62
2021/10/21 05:05:05;;;;;;;;;0.00;0.00;;;;;13.05;56.89;99991.00;5054209;28;61948;-63
2021/10/21 05:07:30;;;;;;;;;2.25;0.00;;;;;13.06;56.58;99995.28;5056128;28;47031;-60
2021/10/21 05:09:56;;;;;;;;;1.00;1.00;;;;;13.07;56.59;100002.19;5055792;28;45335;-59
2021/10/21 05:12:21;;;;;;;;;2.00;0.00;;;;;13.08;56.88;100014.41;5056017;28;45386;-59
2021/10/21 05:14:46;;;;;;;;;1.50;1.00;;;;;13.08;56.71;100019.69;5055743;28;45457;-59
2021/10/21 05:17:12;;;;;;;;;1.00;1.00;;;;;13.08;56.29;100035.50;5055586;28;46670;-60
2021/10/21 05:19:37;;;;;;;;;1.50;1.00;;;;;13.07;56.92;100039.13;5055800;28;45707;-59
2021/10/21 05:22:03;;;;;;;;;1.00;1.00;;;;;13.07;56.40;100049.69;5054832;28;62329;-63
2021/10/21 05:24:28;;;;;;;;;0.50;0.00;;;;;13.06;55.92;100048.84;5054500;28;46009;-61
2021/10/21 05:26:53;;;;;;;;;0.50;0.00;;;;;13.08;56.02;100061.88;5054835;28;69536;-62
2021/10/21 05:29:20;;;;;;;;;1.00;0.75;;;;;13.08;56.70;100067.16;5054972;28;63593;-62
2021/10/21 05:31:45;;;;;;;;;1.00;1.00;;;;;13.11;56.83;100071.25;5055954;28;45261;-62
2021/10/21 05:34:11;;;;;;;;;2.50;1.75;;;;;13.11;56.15;100082.66;5055760;28;45446;-62
2021/10/21 05:36:36;;;;;;;;;1.25;1.00;;;;;13.10;56.34;100073.09;5054837;28;63488;-62
2021/10/21 05:39:02;;;;;;;;;2.00;1.00;;;;;13.10;55.81;100081.00;5055422;28;45369;-61
2021/10/21 05:41:27;;;;;;;;;1.50;1.00;;;;;13.10;56.29;100088.91;5055731;28;45692;-62
2021/10/21 05:43:54;;;;;;;;;4.00;2.75;;;;;13.11;56.20;100081.81;5056656;28;45639;-61
2021/10/21 05:46:19;;;;;;;;;3.25;1.25;;;;;13.12;56.00;100094.84;5055927;28;45455;-61
2021/10/21 05:48:44;;;;;;;;;5.00;1.00;;;;;13.14;55.69;100097.31;5057286;28;45481;-62
2021/10/21 05:51:10;;;;;;;;;4.50;1.25;;;;;13.15;55.51;100099.81;5057501;28;46023;-62
2021/10/21 05:53:35;;;;;;;;;1.00;1.00;;;;;13.16;55.55;100104.09;5056184;28;48599;-62
2021/10/21 05:56:01;;;;;;;;;2.00;1.25;;;;;13.18;56.19;100106.56;5056714;28;66795;-62
2021/10/21 05:58:26;;;;;;;;;1.00;1.00;;;;;13.18;55.87;100120.56;5057366;28;45386;-62
2021/10/21 06:00:51;;;;;;;;;1.00;1.00;;;;;13.18;55.65;100115.31;5058177;28;58016;-62
2021/10/21 06:03:17;;;;;;;;;2.25;1.00;;;;;13.20;55.79;100104.56;5040762;28;45356;-62
2021/10/21 06:05:42;;;;;;;;;2.25;1.00;;;;;13.21;56.35;100114.97;5057729;28;72256;-62
2021/10/21 06:08:07;;;;;;;;;2.00;1.25;;;;;13.21;56.42;100120.25;5058799;28;45608;-62
2021/10/21 06:10:33;;;;;;;;;5.25;3.00;;;;;13.23;55.86;100114.81;5058040;28;62230;-62
2021/10/21 06:12:59;;;;;;;;;1.00;1.00;;;;;13.25;56.10;100120.75;5059099;28;45538;-61
2021/10/21 06:15:26;;;;;;;;;1.50;1.50;;;;;13.28;55.75;100136.25;5058664;28;46499;-62
2021/10/21 06:17:51;;;;;;;;;1.50;1.50;;;;;13.29;56.20;100124.69;5058615;28;45738;-62
2021/10/21 06:20:17;;;;;;;;;2.00;2.00;;;;;13.33;56.03;100146.28;5058676;28;45374;-62
2021/10/21 06:22:42;;;;;;;;;4.00;2.75;;;;;13.34;56.24;100151.44;5057250;28;45432;-62
2021/10/21 06:25:10;;;;;;;;;17.25;12.25;;;;;13.36;56.03;100146.81;5057084;28;45348;-62
2021/10/21 06:27:35;;;;;;;;;1.00;1.00;;;;;13.38;55.41;100157.19;5058534;28;45954;-62
2021/10/21 06:30:01;;;;;;;;;1.00;0.00;;;;;13.39;55.51;100158.84;5057160;28;45505;-62
2021/10/21 06:32:26;;;;;;;;;2.75;0.25;;;;;13.39;55.36;100158.84;5040140;28;45522;-62
2021/10/21 06:34:53;;;;;;;;;3.75;1.00;;;;;13.41;56.12;100166.59;5057080;28;46437;-61
2021/10/21 06:37:18;;;;;;;;;8.00;5.25;;;;;13.40;56.13;100173.69;5056879;28;45414;-62
2021/10/21 06:39:45;;;;;;;;;1.25;1.25;;;;;13.39;55.70;100172.03;5057438;28;45382;-62
2021/10/21 06:42:10;;;;;;;;;2.25;1.75;;;;;13.39;56.00;100174.66;5058523;28;45447;-61
2021/10/21 06:44:36;;;;;;;;;4.75;2.75;;;;;13.38;56.17;100165.09;5057223;28;70097;-61
2021/10/21 06:47:02;;;;;;;;;1.00;1.00;;;;;13.38;56.40;100172.22;5056775;28;45324;-61
2021/10/21 06:49:30;;;;;;;;;5.50;1.00;;;;;13.39;56.49;100192.34;5057261;28;45361;-62
2021/10/21 06:51:55;;;;;;;;;2.00;1.25;;;;;13.36;56.50;100181.13;5058489;28;45529;-62
2021/10/21 06:54:20;;;;;;;;;8.50;5.50;;;;;13.37;57.17;100187.19;5057231;28;67645;-61
2021/10/21 06:56:46;;;;;;;;;4.50;2.00;;;;;13.36;57.02;100196.94;5055935;28;63944;-62
2021/10/21 06:59:11;;;;;;;;;3.00;2.00;;;;;13.37;57.13;100197.75;5057595;28;53931;-62
2021/10/21 07:01:38;;;;;;;;;10.50;7.00;;;;;13.38;57.21;100206.50;5058152;28;45525;-62
2021/10/21 07:04:04;;;;;;;;;4.75;4.25;;;;;13.37;57.17;100208.31;5058024;28;45465;-62
2021/10/21 07:06:29;;;;;;;;;2.25;1.00;;;;;13.38;57.59;100214.44;5058043;28;45284;-62
2021/10/21 07:08:55;;;;;;;;;1.50;1.50;;;;;13.35;57.24;100211.13;5058126;28;45478;-61
2021/10/21 07:11:20;;;;;;;;;3.25;2.00;;;;;13.34;57.72;100225.31;5058014;28;45569;-62
2021/10/21 07:13:45;;;;;;;;;1.00;1.00;;;;;13.35;57.67;100236.66;5058036;28;46504;-62
2021/10/21 07:16:11;;;;;;;;;2.00;2.00;;;;;13.37;57.87;100229.41;5057767;28;46903;-63
2021/10/21 07:18:36;;;;;;;;;5.25;5.00;;;;;13.37;57.95;100229.41;5057878;28;45326;-62
2021/10/21 07:21:02;;;;;;;;;3.25;2.50;;;;;13.38;58.30;100239.00;5057418;28;55791;-62
2021/10/21 07:23:27;;;;;;;;;2.00;1.00;;;;;13.41;57.96;100241.34;5056036;28;47910;-62
2021/10/21 07:25:52;;;;;;;;;7.75;2.25;;;;;13.43;57.86;100236.72;5057619;28;45247;-62
2021/10/21 07:28:21;;;;;;;;;21.00;19.25;;;;;13.44;58.26;100248.94;5057604;28;45166;-62
2021/10/21 07:30:47;;;;;;;;;8.25;5.00;;;;;13.45;58.49;100255.88;5057531;28;45334;-62
2021/10/21 07:33:13;;;;;;;;;4.50;2.00;;;;;13.46;58.67;100254.88;5056226;28;45338;-62
2021/10/21 07:35:38;;;;;;;;;1.50;1.50;;;;;13.48;58.14;100260.81;5056933;28;61388;-62
2021/10/21 07:38:04;;;;;;;;;2.50;2.00;;;;;13.46;57.83;100252.25;5057012;28;53519;-61
2021/10/21 07:40:29;;;;;;;;;3.25;1.00;;;;;13.47;58.42;100261.00;5057575;28;45323;-61
2021/10/21 07:42:54;;;;;;;;;2.75;1.00;;;;;13.48;58.53;100276.66;5056999;28;45499;-63
2021/10/21 07:45:20;;;;;;;;;5.00;1.25;;;;;13.52;58.21;100282.44;5056016;28;45402;-63
2021/10/21 07:47:46;;;;;;;;;5.00;2.00;;;;;13.55;58.19;100278.66;5057562;28;45458;-62
2021/10/21 07:50:11;;;;;;;;;4.00;2.00;;;;;13.56;57.75;100285.59;5057134;28;45385;-63
2021/10/21 07:52:40;;;;;;;;;4.75;1.00;;;;;13.58;57.68;100289.69;5057003;28;45447;-63
2021/10/21 07:55:09;;;;;;;;;2.50;2.50;;;;;13.61;57.55;100301.78;5055879;28;45643;-61
2021/10/21 07:57:34;;;;;;;;;2.00;2.00;;;;;13.64;57.79;100293.53;5056058;28;45506;-60
2021/10/21 07:59:59;;;;;;;;;2.75;2.00;;;;;13.68;57.50;100300.13;5055892;28;45411;-61
2021/10/21 08:02:25;;;;;;;;;7.75;3.00;;;;;13.72;57.45;100306.75;5056844;28;45559;-61
2021/10/21 08:04:50;;;;;;;;;3.00;1.00;;;;;13.79;57.75;100315.66;5062002;28;45425;-61
2021/10/21 08:07:16;;;;;;;;;3.00;1.00;;;;;13.88;57.35;100313.03;5075289;28;45509;-61
2021/10/21 08:09:41;;;;;;;;;2.25;1.00;;;;;13.95;57.02;100311.38;5076032;28;45382;-61
2021/10/21 08:12:08;;;;;;;;;4.75;2.50;;;;;14.06;56.96;100318.16;5075546;28;58464;-61
2021/10/21 08:14:33;;;;;;;;;2.25;2.25;;;;;14.23;56.81;100321.66;5074818;27;45414;-60
2021/10/21 08:16:59;;;;;;;;;6.25;2.75;;;;;14.42;56.49;100322.28;5074854;27;45369;-61
2021/10/21 08:19:26;;;;;;;;;7.00;6.00;;;;;14.63;56.39;100319.09;5072727;28;45601;-61
2021/10/21 08:21:52;;;;;;;;;6.50;3.75;;;;;14.85;55.21;100317.59;5071642;28;46529;-61
2021/10/21 08:24:19;;;;;;;;;2.75;2.25;;;;;15.07;55.36;100323.16;5072503;28;45390;-61
2021/10/21 08:26:44;;;;;;;;;1.50;0.75;;;;;15.30;54.64;100330.38;5073394;28;45451;-61
2021/10/21 08:29:09;;;;;;;;;4.50;1.50;;;;;15.50;53.89;100320.97;5071970;28;45559;-62
2021/10/21 08:31:35;;;;;;;;;2.50;1.00;;;;;15.68;53.92;100333.94;5055024;28;65136;-61
2021/10/21 08:34:01;;;;;;;;;2.00;1.50;;;;;15.87;53.05;100332.72;5073653;27;55143;-61
2021/10/21 08:36:26;;;;;;;;;3.00;1.00;;;;;16.07;52.92;100323.47;5072786;28;45244;-61
2021/10/21 08:38:52;;;;;;;;;3.50;1.25;;;;;16.25;52.95;100339.06;5072779;27;63944;-61
2021/10/21 08:41:18;;;;;;;;;1.25;1.00;;;;;16.42;52.06;100337.09;5072152;28;53509;-62
2021/10/21 08:43:45;;;;;;;;;3.75;1.75;;;;;16.58;51.89;100342.25;5073477;28;45460;-61
2021/10/21 08:46:11;;;;;;;;;5.25;1.75;;;;;16.74;51.06;100343.94;5074366;28;45235;-61
2021/10/21 08:48:36;;;;;;;;;1.00;1.00;;;;;16.93;51.04;100341.75;5072563;27;45609;-62
2021/10/21 08:51:02;;;;;;;;;2.00;1.00;;;;;17.10;50.18;100347.72;5055160;28;45729;-60
2021/10/21 08:53:27;;;;;;;;;2.25;2.00;;;;;17.29;50.15;100342.84;5071713;28;45417;-61
2021/10/21 08:55:53;;;;;;;;;2.50;1.00;;;;;17.44;49.56;100345.50;5073097;28;45492;-61
2021/10/21 08:58:19;;;;;;;;;5.50;1.00;;;;;17.61;49.57;100352.22;5073793;27;45683;-62
2021/10/21 09:00:51;;;;;;;;;2.75;1.00;;;;;17.77;48.89;100353.00;5072500;28;58721;-61
2021/10/21 09:03:41;;;;;;;;;2.00;1.00;;;;;17.97;48.42;100341.75;5073218;28;45537;-61
2021/10/21 09:06:10;;;;;;;;;4.25;2.00;;;;;18.10;47.74;100349.88;5072475;28;45474;-61
2021/10/21 09:08:42;;;;;;;;;2.25;1.00;;;;;18.23;47.67;100331.38;5073607;28;45660;-61
2021/10/21 09:11:08;;;;;;;;;3.00;1.50;;;;;18.38;47.13;100333.16;5055306;28;51591;-61
2021/10/21 09:13:38;;;;;;;;;4.25;2.75;;;;;18.52;46.74;100342.03;5073242;28;64908;-61
2021/10/21 09:16:05;;;;;;;;;1.00;1.00;;;;;18.65;45.80;100339.50;5073946;28;45496;-62
2021/10/21 09:18:43;;;;;;;;;2.00;2.00;;;;;18.79;45.73;100335.06;5074073;28;45296;-61
2021/10/21 09:21:12;;;;;;;;;2.00;2.00;;;;;18.91;45.44;100342.50;5077056;28;46493;-61
2021/10/21 09:23:38;;;;;;;;;3.75;3.00;;;;;19.03;45.63;100334.81;5059200;27;45979;-61
2021/10/21 09:26:08;;;;;;;;;2.50;2.00;;;;;19.13;45.21;100328.09;5077382;28;47963;-62
2021/10/21 09:28:33;;;;;;;;;5.25;2.00;;;;;19.22;44.93;100326.09;5078143;28;45405;-61
2021/10/21 09:31:09;;;;;;;;;6.75;2.50;;;;;19.32;44.65;100328.38;5078277;28;45461;-61
2021/10/21 09:33:45;;;;;;;;;1.00;1.00;;;;;19.40;44.31;100349.53;5074426;27;45629;-62
2021/10/21 09:36:10;;;;;;;;;2.00;1.00;;;;;19.51;44.33;100342.00;5076005;28;45453;-61
2021/10/21 09:38:36;;;;;;;;;4.00;1.25;;;;;19.63;44.09;100329.72;5075904;28;63052;-61
2021/10/21 09:41:18;;;;;;;;;3.75;2.25;;;;;19.79;43.61;100341.88;5058700;28;45486;-61
2021/10/21 09:43:44;;;;;;;;;0.00;0.00;;;;;19.95;43.11;100335.34;5075780;27;45334;-61
2021/10/21 09:46:33;;;;;;;;;2.25;1.00;;;;;20.07;42.69;100340.91;5075667;28;45310;-62
2021/10/21 09:49:33;;;;;;;;;1.50;1.50;;;;;20.24;41.71;100341.31;5075175;28;45510;-61
2021/10/21 09:52:01;;;;;;;;;3.50;1.50;;;;;20.35;42.06;100345.22;5075735;28;46279;-62
2021/10/21 09:54:27;;;;;;;;;4.00;1.50;;;;;20.47;41.35;100350.75;5075806;28;45980;-62
2021/10/21 09:56:54;;;;;;;;;3.75;3.00;;;;;20.56;41.72;100328.19;5077510;27;45606;-62
2021/10/21 09:59:27;;;;;;;;;5.75;3.50;;;;;20.65;41.58;100336.78;5074192;27;45521;-61
2021/10/21 10:02:04;;;;;;;;;1.00;1.00;;;;;20.70;41.87;100344.16;5075871;27;46080;-61
2021/10/21 10:04:30;;;;;;;;;4.75;2.75;;;;;20.69;41.12;100339.84;5075368;28;45477;-61
2021/10/21 10:06:58;;;;;;;;;2.00;1.00;;;;;20.70;40.70;100354.81;5074695;27;62261;-62
2021/10/21 10:09:30;;;;;;;;;2.50;2.00;;;;;20.71;41.25;100351.97;5074887;28;45313;-62
2021/10/21 10:11:55;;;;;;;;;1.00;1.00;;;;;20.78;40.73;100362.66;5074726;28;47238;-61
2021/10/21 10:14:21;;;;;;;;;6.00;1.75;;;;;20.87;40.90;100366.75;5057557;28;45466;-61
2021/10/21 10:16:47;;;;;;;;;3.00;1.00;;;;;20.94;40.90;100360.56;5074631;28;66549;-61
2021/10/21 10:19:13;;;;;;;;;2.50;1.00;;;;;21.00;40.97;100362.41;5075995;27;45590;-61
2021/10/21 10:21:38;;;;;;;;;2.00;1.75;;;;;21.03;40.36;100362.00;5073333;28;73129;-62
2021/10/21 10:24:11;;;;;;;;;1.00;1.00;;;;;21.04;40.20;100345.75;5074306;28;45319;-61
2021/10/21 10:26:44;;;;;;;;;1.00;1.00;;;;;21.04;40.43;100356.44;5073552;28;45453;-62
2021/10/21 10:29:09;;;;;;;;;1.25;0.25;;;;;20.99;39.92;100348.22;5074895;28;45571;-62
2021/10/21 10:31:41;;;;;;;;;2.00;2.00;;;;;20.89;40.03;100348.66;5075013;27;45490;-62
2021/10/21 10:34:30;;;;;;;;;2.00;2.00;;;;;20.78;40.40;100348.50;5076576;27;45819;-61
2021/10/21 10:36:56;;;;;;;;;2.50;0.75;;;;;20.65;40.45;100362.66;5041558;27;45510;-61
2021/10/21 10:39:45;;;;;;;;;1.00;0.00;;;;;20.49;40.12;100358.56;5073493;28;69334;-61
2021/10/21 10:42:11;;;;;;;;;2.00;0.00;;;;;20.34;40.26;100340.09;5075989;28;45447;-61
2021/10/21 10:44:36;;;;;;;;;0.75;0.75;;;;;20.20;40.47;100356.09;5074012;28;45853;-62
2021/10/21 10:47:02;;;;;;;;;1.75;0.00;;;;;20.05;41.26;100361.63;5076685;28;45262;-61
2021/10/21 10:49:37;;;;;;;;;2.00;2.00;;;;;19.93;41.42;100340.06;5072263;28;45498;-61
2021/10/21 10:52:06;;;;;;;;;1.00;1.00;;;;;19.84;41.80;100351.91;5074458;28;46167;-61
2021/10/21 10:54:43;;;;;;;;;3.00;1.50;;;;;19.73;41.75;100353.34;5076400;28;45911;-61
2021/10/21 10:57:24;;;;;;;;;1.75;1.50;;;;;19.61;41.78;100357.59;5076222;28;45549;-61
2021/10/21 10:59:49;;;;;;;;;0.75;0.75;;;;;19.52;41.69;100355.09;5075749;28;45599;-61
2021/10/21 11:02:33;;;;;;;;;1.50;1.50;;;;;19.42;42.50;100351.97;5057108;28;46491;-60
2021/10/21 11:05:00;;;;;;;;;1.00;1.00;;;;;19.32;42.83;100355.03;5075197;27;45503;-62
2021/10/21 11:07:40;;;;;;;;;3.50;1.00;;;;;19.22;43.68;100351.91;5074081;28;45517;-61
2021/10/21 11:10:23;;;;;;;;;3.00;1.25;;;;;19.08;44.18;100364.34;5073596;28;45571;-61
2021/10/21 11:12:51;;;;;;;;;2.00;2.00;;;;;18.95;45.29;100368.53;5074853;28;45571;-61
2021/10/21 11:15:29;;;;;;;;;0.50;0.25;;;;;18.81;46.07;100372.16;5074412;28;45915;-61
2021/10/21 11:17:58;;;;;;;;;2.00;1.00;;;;;18.66;46.57;100372.22;5075554;27;45431;-61
2021/10/21 11:20:27;;;;;;;;;2.00;0.00;;;;;18.48;47.33;100365.56;5076112;27;45422;-61
2021/10/21 11:22:53;;;;;;;;;1.00;0.75;;;;;18.34;48.78;100367.28;5075422;28;45472;-61
2021/10/21 11:25:18;;;;;;;;;1.00;1.00;;;;;18.21;49.26;100360.00;5075061;28;45445;-61
2021/10/21 11:27:45;;;;;;;;;1.25;1.00;;;;;18.07;50.34;100364.38;5073945;28;45510;-60